메인 페이지
METAR-TAF:

METAR-TAF

공항 :

New Iberia, 루이지애나, 미국

위도: 30-01-44N, 경도: 091-53-04W, 고도: 7m

현재 날씨관측

예보는 54분 전, 09:53시(UTC)에 발표되었습니다.
무풍
온도 26°C
습도 94%
기압 1015 hPa
시정: 16.1km
맑음

METAR: KARA 130953Z AUTO 00000KT 10SM CLR 26/25 A2998 RMK AO2 SLP151 T02560250

시각: 05:47 (10:47 UTC)

예보

예보는 5 시간 27분 전, 05:20시(UTC)에 발표되었습니다.
예보 대상 시간: 13일 06시부터 14일 06시까지 (UTC)
여러 방향의 바람 3kt
시정: 10km
고도 20000ft 상공 구름 조금
13일 1400시부터 (UTC)
서남서6kt
시정: 10km
고도 3000ft 상공 구름 조금
13일 1800시부터 (UTC)
서남서7kt
시정: 10km
고도 3500ft 상공 구름 보통, 적란운.
고도 25000ft 상공 구름 보통
시계 내 뇌우
14일 0100시부터 (UTC)
남서3kt
시정: 10km
고도 25000ft 상공 구름 보통

TAF: KARA 130520Z 1306/1406 VRB03KT P6SM FEW200 FM131400 25006KT P6SM FEW030 FM131800 25007KT P6SM VCTS SCT035CB SCT250 FM140100 23003KT P6SM SCT250

4,000개 이상의 공항 관측 자료 및 예보 (METAR 및 TAF 보고).

지도상에서 검색 가능한 기상관측소가 노란 점과 빨간 점으로 표시되어 있습니다.

기상관측소 명을 보려면 표시 위로 마우스를 이동하세요.

날씨 관측과 예보를 보려면 클릭하세요.

지도 변경 : 확대하려면 엑스 표시가 있는 녹색 버튼, 축소하려면 빼기 표시가 있는 녹색 버튼, 다음 페이지의 지도를 보려면 녹색 화살표를 클릭하세요.


METAR-TAF: